Parker, Washington
Current Conditions -  °F | °C
As of 7:02 PM on Friday 21 Nov 2014 (Local Time) from KYKM Reporting Station
Haze Haze  
Wind Chill: 33°   Ceiling: 1000
Heat Index: 33°   Visibility: 1.7mi
Dew Point: 30°   Wind: 0mph
Humidity: 89%   Direction: NA
Pressure: 29.48"   Gusts: NA
Location:  46.5°N, 120.47°W
Report Text: KYKM 220302Z 00000KT 1 3/4SM BR FEW003 OVC010 01/M01 A2948 RMK AO2 TWR VIS 2 RAE0259 P0000 T00061011
Loading
Personal Weather Stations






























Interactive Weather Map New forecast layout! Learn more

10-Day Weather Forecast

Advertisements
Track Severe Weather on mobile